BAW744 EGLL-LSGG
Flight info
| Callsign | BAW744 |
|---|---|
| Flight time | 1h 15m |
| Altitude | 35000 |
| Route | DCT MAXIT Y803 MID L612 BOGNA UL612 RESMI UM975 PEKIM DCT PILUL DCT PIMUP/N0417F270 DCT PIXIS DCT PIBAT/N0393F230 DCT LUSAR DCT |
| Aircraft | A320/M-SDE3FGHIJ1RWXY/S |
Departure
| Time | 2026-05-06 13:10 |
|---|---|
| Airport | London Heathrow Airport (EGLL) |
Arrival
| Time | 2026-05-06 14:25 |
|---|---|
| Airport | Geneva International Airport (LSGG) |
| Time | Latitude | Longitude | Altitude | Speed | Heading |
|---|---|---|---|---|---|
| 2026-05-06 12:49 | 51.46926 | -0.48718 | 89 ft | 0 kts | 360° |
| 2026-05-06 13:03 | 51.46920 | -0.48718 | 87 ft | 2 kts | 358° |
| 2026-05-06 13:04 | 51.46901 | -0.48714 | 87 ft | 3 kts | 340° |
| 2026-05-06 13:04 | 51.46884 | -0.48700 | 87 ft | 3 kts | 308° |
| 2026-05-06 13:04 | 51.46876 | -0.48676 | 87 ft | 2 kts | 273° |
| 2026-05-06 13:04 | 51.46876 | -0.48670 | 87 ft | 0 kts | 270° |
| 2026-05-06 13:07 | 51.46876 | -0.48674 | 91 ft | 1 kts | 270° |
| 2026-05-06 13:07 | 51.46874 | -0.48723 | 89 ft | 6 kts | 257° |
| 2026-05-06 13:08 | 51.46833 | -0.48753 | 89 ft | 8 kts | 178° |
| 2026-05-06 13:08 | 51.46771 | -0.48751 | 88 ft | 10 kts | 179° |
| 2026-05-06 13:08 | 51.46696 | -0.48749 | 87 ft | 12 kts | 180° |
| 2026-05-06 13:08 | 51.46623 | -0.48757 | 89 ft | 10 kts | 196° |
| 2026-05-06 13:09 | 51.46586 | -0.48778 | 88 ft | 4 kts | 200° |
| 2026-05-06 13:09 | 51.46548 | -0.48792 | 88 ft | 8 kts | 182° |
| 2026-05-06 13:09 | 51.46485 | -0.48733 | 88 ft | 12 kts | 118° |
| 2026-05-06 13:09 | 51.46478 | -0.48583 | 88 ft | 18 kts | 90° |
| 2026-05-06 13:10 | 51.46479 | -0.47927 | 87 ft | 101 kts | 90° |
| 2026-05-06 13:10 | 51.46489 | -0.46435 | 92 ft | 164 kts | 85° |
| 2026-05-06 13:10 | 51.46489 | -0.44513 | 715 ft | 175 kts | 88° |
| 2026-05-06 13:10 | 51.46447 | -0.42523 | 1549 ft | 185 kts | 88° |
| 2026-05-06 13:11 | 51.46151 | -0.40369 | 1982 ft | 215 kts | 112° |
| 2026-05-06 13:11 | 51.45399 | -0.38184 | 2404 ft | 236 kts | 123° |
| 2026-05-06 13:11 | 51.44142 | -0.36309 | 2872 ft | 261 kts | 147° |
| 2026-05-06 13:11 | 51.42429 | -0.35183 | 3588 ft | 273 kts | 168° |
| 2026-05-06 13:12 | 51.40532 | -0.35123 | 4457 ft | 276 kts | 191° |
| 2026-05-06 13:12 | 51.39899 | -0.35374 | 4769 ft | 277 kts | 200° |
| 2026-05-06 13:12 | 51.38421 | -0.36892 | 5512 ft | 277 kts | 223° |
| 2026-05-06 13:12 | 51.36863 | -0.38744 | 6160 ft | 281 kts | 212° |
| 2026-05-06 13:13 | 51.35134 | -0.40128 | 6810 ft | 284 kts | 206° |
| 2026-05-06 13:13 | 51.33305 | -0.41369 | 7629 ft | 287 kts | 204° |
| 2026-05-06 13:13 | 51.31451 | -0.42612 | 8482 ft | 290 kts | 205° |
| 2026-05-06 13:13 | 51.29602 | -0.43884 | 9305 ft | 293 kts | 206° |
| 2026-05-06 13:14 | 51.27739 | -0.45249 | 10106 ft | 296 kts | 207° |
| 2026-05-06 13:14 | 51.25831 | -0.46714 | 10465 ft | 315 kts | 208° |
| 2026-05-06 13:14 | 51.23789 | -0.48318 | 10652 ft | 338 kts | 208° |
| 2026-05-06 13:14 | 51.21644 | -0.50005 | 11149 ft | 347 kts | 208° |
| 2026-05-06 13:15 | 51.19461 | -0.51706 | 11828 ft | 351 kts | 207° |
| 2026-05-06 13:15 | 51.17257 | -0.53406 | 12543 ft | 354 kts | 207° |
| 2026-05-06 13:15 | 51.15030 | -0.55111 | 13245 ft | 356 kts | 207° |
| 2026-05-06 13:15 | 51.12785 | -0.56828 | 13939 ft | 360 kts | 207° |
| 2026-05-06 13:16 | 51.10520 | -0.58548 | 14556 ft | 362 kts | 205° |
| 2026-05-06 13:16 | 51.08097 | -0.59728 | 15146 ft | 368 kts | 192° |
| 2026-05-06 13:16 | 51.05530 | -0.59952 | 15745 ft | 373 kts | 177° |
| 2026-05-06 13:16 | 51.02975 | -0.59163 | 16339 ft | 378 kts | 162° |
| 2026-05-06 13:17 | 51.00585 | -0.57374 | 16938 ft | 382 kts | 148° |
| 2026-05-06 13:17 | 50.98372 | -0.55012 | 17552 ft | 385 kts | 147° |
| 2026-05-06 13:17 | 50.96146 | -0.52622 | 18168 ft | 388 kts | 147° |
| 2026-05-06 13:17 | 50.93899 | -0.50219 | 18721 ft | 391 kts | 147° |
| 2026-05-06 13:18 | 50.91629 | -0.47807 | 19272 ft | 394 kts | 147° |
| 2026-05-06 13:18 | 50.89345 | -0.45387 | 19847 ft | 396 kts | 148° |
| 2026-05-06 13:18 | 50.87047 | -0.42955 | 20422 ft | 399 kts | 148° |
| 2026-05-06 13:18 | 50.84729 | -0.40500 | 20979 ft | 402 kts | 147° |
| 2026-05-06 13:19 | 50.82397 | -0.38028 | 21506 ft | 405 kts | 147° |
| 2026-05-06 13:19 | 50.80052 | -0.35545 | 22025 ft | 407 kts | 147° |
| 2026-05-06 13:19 | 50.77691 | -0.33052 | 22532 ft | 410 kts | 148° |
| 2026-05-06 13:19 | 50.75338 | -0.30577 | 23020 ft | 412 kts | 148° |
| 2026-05-06 13:20 | 50.72943 | -0.28061 | 23504 ft | 415 kts | 148° |
| 2026-05-06 13:20 | 50.70534 | -0.25529 | 23915 ft | 417 kts | 148° |
| 2026-05-06 13:20 | 50.68113 | -0.22979 | 24322 ft | 419 kts | 147° |
| 2026-05-06 13:20 | 50.65681 | -0.20418 | 24724 ft | 421 kts | 147° |
| 2026-05-06 13:21 | 50.63240 | -0.17850 | 25117 ft | 423 kts | 147° |
| 2026-05-06 13:21 | 50.60789 | -0.15283 | 25504 ft | 425 kts | 148° |
| 2026-05-06 13:21 | 50.58334 | -0.12722 | 25879 ft | 427 kts | 148° |
| 2026-05-06 13:21 | 50.55859 | -0.10142 | 26249 ft | 428 kts | 148° |
| 2026-05-06 13:22 | 50.53364 | -0.07547 | 26615 ft | 430 kts | 148° |
| 2026-05-06 13:22 | 50.50864 | -0.04951 | 26987 ft | 432 kts | 148° |
| 2026-05-06 13:22 | 50.48348 | -0.02339 | 27346 ft | 434 kts | 148° |
| 2026-05-06 13:22 | 50.45820 | 0.00287 | 27710 ft | 436 kts | 148° |
| 2026-05-06 13:23 | 50.43284 | 0.02920 | 28071 ft | 438 kts | 148° |
| 2026-05-06 13:23 | 50.40734 | 0.05560 | 28416 ft | 440 kts | 148° |
| 2026-05-06 13:23 | 50.38176 | 0.08206 | 28753 ft | 442 kts | 147° |
| 2026-05-06 13:23 | 50.35603 | 0.10872 | 29084 ft | 444 kts | 147° |
| 2026-05-06 13:24 | 50.33017 | 0.13548 | 29421 ft | 446 kts | 147° |
| 2026-05-06 13:24 | 50.30428 | 0.16218 | 29898 ft | 445 kts | 148° |
| 2026-05-06 13:24 | 50.27850 | 0.18873 | 30327 ft | 444 kts | 148° |
| 2026-05-06 13:24 | 50.25273 | 0.21525 | 30712 ft | 443 kts | 148° |
| 2026-05-06 13:25 | 50.22899 | 0.23960 | 31068 ft | 443 kts | 147° |
| 2026-05-06 13:25 | 50.20319 | 0.26600 | 31451 ft | 443 kts | 147° |
| 2026-05-06 13:25 | 50.17748 | 0.29235 | 31847 ft | 442 kts | 147° |
| 2026-05-06 13:25 | 50.15183 | 0.31871 | 32240 ft | 442 kts | 147° |
| 2026-05-06 13:26 | 50.13707 | 0.33393 | 32476 ft | 441 kts | 147° |
| 2026-05-06 13:26 | 50.11184 | 0.35996 | 32868 ft | 441 kts | 147° |
| 2026-05-06 13:26 | 50.08596 | 0.38660 | 33277 ft | 440 kts | 147° |
| 2026-05-06 13:26 | 50.06073 | 0.41243 | 33678 ft | 440 kts | 147° |
| 2026-05-06 13:27 | 50.03514 | 0.43852 | 34064 ft | 439 kts | 147° |
| 2026-05-06 13:27 | 50.01428 | 0.45977 | 34332 ft | 439 kts | 147° |
| 2026-05-06 13:27 | 49.98879 | 0.48577 | 34626 ft | 439 kts | 147° |
| 2026-05-06 13:27 | 49.96323 | 0.51176 | 34893 ft | 440 kts | 147° |
| 2026-05-06 13:28 | 49.93756 | 0.53782 | 34961 ft | 443 kts | 147° |
| 2026-05-06 13:28 | 49.88557 | 0.59059 | 34978 ft | 448 kts | 147° |
| 2026-05-06 13:29 | 49.83501 | 0.64714 | 34977 ft | 449 kts | 141° |
| 2026-05-06 13:29 | 49.78656 | 0.70830 | 34972 ft | 449 kts | 141° |
| 2026-05-06 13:30 | 49.73808 | 0.76929 | 34961 ft | 449 kts | 141° |
| 2026-05-06 13:30 | 49.68959 | 0.83005 | 34968 ft | 449 kts | 141° |
| 2026-05-06 13:31 | 49.64136 | 0.89043 | 34966 ft | 449 kts | 141° |
| 2026-05-06 13:31 | 49.59274 | 0.95098 | 34968 ft | 449 kts | 141° |
| 2026-05-06 13:32 | 49.54410 | 1.01142 | 34959 ft | 449 kts | 141° |
| 2026-05-06 13:32 | 49.49547 | 1.07172 | 34958 ft | 449 kts | 141° |
| 2026-05-06 13:33 | 49.44679 | 1.13185 | 34961 ft | 449 kts | 141° |
| 2026-05-06 13:33 | 49.39813 | 1.19182 | 34961 ft | 449 kts | 141° |
| 2026-05-06 13:34 | 49.34946 | 1.25180 | 34964 ft | 448 kts | 141° |
| 2026-05-06 13:34 | 49.30078 | 1.31155 | 34963 ft | 448 kts | 142° |
| 2026-05-06 13:35 | 49.25213 | 1.37111 | 34959 ft | 448 kts | 142° |
| 2026-05-06 13:35 | 49.20341 | 1.43064 | 34956 ft | 448 kts | 142° |
| 2026-05-06 13:36 | 49.15472 | 1.48992 | 34949 ft | 448 kts | 142° |
| 2026-05-06 13:36 | 49.10592 | 1.54914 | 34950 ft | 448 kts | 142° |
| 2026-05-06 13:37 | 49.05748 | 1.60785 | 34945 ft | 448 kts | 142° |
| 2026-05-06 13:37 | 49.00864 | 1.66680 | 34927 ft | 448 kts | 142° |
| 2026-05-06 13:38 | 48.95984 | 1.72562 | 34929 ft | 448 kts | 142° |
| 2026-05-06 13:38 | 48.91255 | 1.78260 | 34931 ft | 448 kts | 142° |
| 2026-05-06 13:39 | 48.86368 | 1.84108 | 34928 ft | 447 kts | 143° |
| 2026-05-06 13:39 | 48.81474 | 1.89953 | 34933 ft | 447 kts | 142° |
| 2026-05-06 13:40 | 48.77419 | 1.94809 | 34926 ft | 447 kts | 142° |
| 2026-05-06 13:40 | 48.75631 | 1.96986 | 34941 ft | 447 kts | 142° |
| 2026-05-06 13:41 | 48.71407 | 2.02077 | 34939 ft | 447 kts | 142° |
| 2026-05-06 13:41 | 48.66492 | 2.07858 | 34940 ft | 447 kts | 143° |
| 2026-05-06 13:42 | 48.61579 | 2.13610 | 34933 ft | 447 kts | 143° |
| 2026-05-06 13:42 | 48.56848 | 2.19678 | 34929 ft | 447 kts | 133° |
| 2026-05-06 13:43 | 48.53204 | 2.27185 | 34926 ft | 447 kts | 125° |
| 2026-05-06 13:43 | 48.49679 | 2.34905 | 34928 ft | 447 kts | 126° |
| 2026-05-06 13:44 | 48.46135 | 2.42589 | 34925 ft | 447 kts | 126° |
| 2026-05-06 13:44 | 48.42580 | 2.50268 | 34934 ft | 447 kts | 126° |
| 2026-05-06 13:45 | 48.39030 | 2.57940 | 34934 ft | 447 kts | 126° |
| 2026-05-06 13:45 | 48.33696 | 2.69442 | 34938 ft | 447 kts | 126° |
| 2026-05-06 13:46 | 48.30135 | 2.77083 | 34937 ft | 446 kts | 126° |
| 2026-05-06 13:46 | 48.26146 | 2.84170 | 34928 ft | 444 kts | 140° |
| 2026-05-06 13:47 | 48.21279 | 2.89868 | 34925 ft | 444 kts | 143° |
| 2026-05-06 13:47 | 48.16378 | 2.95517 | 34921 ft | 445 kts | 143° |
| 2026-05-06 13:48 | 48.11476 | 3.01171 | 34918 ft | 445 kts | 143° |
| 2026-05-06 13:48 | 48.06301 | 3.06089 | 34912 ft | 444 kts | 157° |
| 2026-05-06 13:49 | 48.00608 | 3.09679 | 34920 ft | 444 kts | 158° |
| 2026-05-06 13:49 | 47.94909 | 3.13261 | 34925 ft | 445 kts | 158° |
| 2026-05-06 13:50 | 47.89210 | 3.16837 | 34929 ft | 445 kts | 158° |
| 2026-05-06 13:50 | 47.83500 | 3.20417 | 34927 ft | 445 kts | 158° |
| 2026-05-06 13:51 | 47.77798 | 3.23979 | 34931 ft | 445 kts | 158° |
| 2026-05-06 13:51 | 47.72093 | 3.27543 | 34935 ft | 445 kts | 158° |
| 2026-05-06 13:52 | 47.66385 | 3.31092 | 34931 ft | 445 kts | 158° |
| 2026-05-06 13:52 | 47.60716 | 3.34603 | 34935 ft | 445 kts | 158° |
| 2026-05-06 13:53 | 47.55010 | 3.38135 | 34934 ft | 444 kts | 158° |
| 2026-05-06 13:53 | 47.49310 | 3.41661 | 34924 ft | 444 kts | 158° |
| 2026-05-06 13:54 | 47.43606 | 3.45179 | 34922 ft | 444 kts | 158° |
| 2026-05-06 13:54 | 47.37904 | 3.48686 | 34918 ft | 444 kts | 159° |
| 2026-05-06 13:55 | 47.32200 | 3.52181 | 34917 ft | 444 kts | 159° |
| 2026-05-06 13:55 | 47.26492 | 3.55672 | 34913 ft | 444 kts | 159° |
| 2026-05-06 13:56 | 47.20782 | 3.59145 | 34909 ft | 444 kts | 159° |
| 2026-05-06 13:56 | 47.15109 | 3.62597 | 34908 ft | 444 kts | 159° |
| 2026-05-06 13:57 | 47.09401 | 3.66074 | 34908 ft | 444 kts | 159° |
| 2026-05-06 13:57 | 47.03689 | 3.69543 | 34904 ft | 444 kts | 159° |
| 2026-05-06 13:58 | 46.98083 | 3.73352 | 34904 ft | 446 kts | 148° |
| 2026-05-06 13:58 | 46.93557 | 3.79540 | 34900 ft | 450 kts | 127° |
| 2026-05-06 13:59 | 46.91941 | 3.83471 | 34897 ft | 452 kts | 116° |
| 2026-05-06 13:59 | 46.90765 | 3.87745 | 34892 ft | 454 kts | 112° |
| 2026-05-06 13:59 | 46.88503 | 3.96370 | 34557 ft | 455 kts | 113° |
| 2026-05-06 14:00 | 46.87367 | 4.00658 | 34143 ft | 450 kts | 113° |
| 2026-05-06 14:00 | 46.86238 | 4.04890 | 33686 ft | 445 kts | 113° |
| 2026-05-06 14:00 | 46.85112 | 4.09088 | 33195 ft | 441 kts | 113° |
| 2026-05-06 14:00 | 46.84000 | 4.13233 | 32707 ft | 436 kts | 113° |
| 2026-05-06 14:01 | 46.82898 | 4.17336 | 32235 ft | 432 kts | 113° |
| 2026-05-06 14:01 | 46.81808 | 4.21399 | 31759 ft | 428 kts | 113° |
| 2026-05-06 14:01 | 46.80770 | 4.25441 | 31305 ft | 424 kts | 108° |
| 2026-05-06 14:01 | 46.80062 | 4.29597 | 30856 ft | 420 kts | 103° |
| 2026-05-06 14:02 | 46.79669 | 4.32348 | 30556 ft | 416 kts | 102° |
| 2026-05-06 14:02 | 46.79076 | 4.36457 | 30121 ft | 411 kts | 102° |
| 2026-05-06 14:02 | 46.78485 | 4.40513 | 29631 ft | 406 kts | 102° |
| 2026-05-06 14:02 | 46.77708 | 4.45809 | 28945 ft | 401 kts | 102° |
| 2026-05-06 14:03 | 46.77126 | 4.49760 | 28436 ft | 397 kts | 102° |
| 2026-05-06 14:03 | 46.76735 | 4.52411 | 28094 ft | 394 kts | 102° |
| 2026-05-06 14:03 | 46.76162 | 4.56303 | 27606 ft | 391 kts | 102° |
| 2026-05-06 14:03 | 46.75594 | 4.60156 | 27123 ft | 388 kts | 103° |
| 2026-05-06 14:04 | 46.75025 | 4.63993 | 26648 ft | 386 kts | 103° |
| 2026-05-06 14:04 | 46.74465 | 4.67761 | 26179 ft | 384 kts | 103° |
| 2026-05-06 14:04 | 46.73902 | 4.71560 | 25727 ft | 383 kts | 103° |
| 2026-05-06 14:04 | 46.73339 | 4.75346 | 25278 ft | 382 kts | 103° |
| 2026-05-06 14:05 | 46.72773 | 4.79128 | 24827 ft | 382 kts | 103° |
| 2026-05-06 14:05 | 46.72206 | 4.82903 | 24388 ft | 381 kts | 103° |
| 2026-05-06 14:05 | 46.71636 | 4.86673 | 23960 ft | 380 kts | 103° |
| 2026-05-06 14:05 | 46.71066 | 4.90430 | 23536 ft | 379 kts | 103° |
| 2026-05-06 14:06 | 46.70499 | 4.94175 | 23048 ft | 378 kts | 103° |
| 2026-05-06 14:06 | 46.69933 | 4.97908 | 22548 ft | 377 kts | 103° |
| 2026-05-06 14:06 | 46.69367 | 5.01630 | 22075 ft | 375 kts | 103° |
| 2026-05-06 14:06 | 46.68806 | 5.05329 | 21573 ft | 374 kts | 103° |
| 2026-05-06 14:07 | 46.68245 | 5.09025 | 21111 ft | 377 kts | 103° |
| 2026-05-06 14:07 | 46.67673 | 5.12771 | 20651 ft | 381 kts | 103° |
| 2026-05-06 14:07 | 46.67099 | 5.16536 | 20190 ft | 381 kts | 103° |
| 2026-05-06 14:07 | 46.66527 | 5.20291 | 19738 ft | 380 kts | 103° |
| 2026-05-06 14:08 | 46.65962 | 5.24040 | 19295 ft | 379 kts | 103° |
| 2026-05-06 14:08 | 46.65401 | 5.27779 | 18856 ft | 377 kts | 103° |
| 2026-05-06 14:08 | 46.64843 | 5.31497 | 18414 ft | 375 kts | 103° |
| 2026-05-06 14:08 | 46.64287 | 5.35200 | 17962 ft | 374 kts | 103° |
| 2026-05-06 14:09 | 46.63737 | 5.38831 | 17476 ft | 372 kts | 103° |
| 2026-05-06 14:09 | 46.63177 | 5.42492 | 17002 ft | 369 kts | 103° |
| 2026-05-06 14:09 | 46.62620 | 5.46126 | 16526 ft | 367 kts | 104° |
| 2026-05-06 14:09 | 46.62065 | 5.49737 | 16058 ft | 365 kts | 104° |
| 2026-05-06 14:10 | 46.61510 | 5.53328 | 15597 ft | 363 kts | 104° |
| 2026-05-06 14:10 | 46.60955 | 5.56900 | 15138 ft | 361 kts | 104° |
| 2026-05-06 14:10 | 46.60399 | 5.60458 | 14694 ft | 360 kts | 105° |
| 2026-05-06 14:10 | 46.59844 | 5.63992 | 14255 ft | 358 kts | 105° |
| 2026-05-06 14:11 | 46.59289 | 5.67514 | 13826 ft | 356 kts | 105° |
| 2026-05-06 14:11 | 46.58736 | 5.71019 | 13350 ft | 355 kts | 105° |
| 2026-05-06 14:11 | 46.58183 | 5.74512 | 12867 ft | 353 kts | 106° |
| 2026-05-06 14:11 | 46.57387 | 5.77850 | 12392 ft | 347 kts | 117° |
| 2026-05-06 14:12 | 46.56204 | 5.80865 | 11925 ft | 341 kts | 128° |
| 2026-05-06 14:12 | 46.54691 | 5.83487 | 11461 ft | 336 kts | 138° |
| 2026-05-06 14:12 | 46.52912 | 5.85651 | 11019 ft | 331 kts | 148° |
| 2026-05-06 14:12 | 46.51019 | 5.87545 | 10568 ft | 330 kts | 148° |
| 2026-05-06 14:13 | 46.49138 | 5.89434 | 10117 ft | 328 kts | 148° |
| 2026-05-06 14:13 | 46.47291 | 5.91290 | 9684 ft | 327 kts | 148° |
| 2026-05-06 14:13 | 46.45424 | 5.93162 | 9209 ft | 326 kts | 148° |
| 2026-05-06 14:13 | 46.43555 | 5.95029 | 8733 ft | 326 kts | 148° |
| 2026-05-06 14:14 | 46.41687 | 5.96894 | 8263 ft | 325 kts | 148° |
| 2026-05-06 14:14 | 46.39831 | 5.98749 | 7957 ft | 320 kts | 147° |
| 2026-05-06 14:14 | 46.38193 | 6.00827 | 7933 ft | 308 kts | 130° |
| 2026-05-06 14:14 | 46.37192 | 6.03480 | 7948 ft | 296 kts | 109° |
| 2026-05-06 14:15 | 46.36909 | 6.06383 | 7948 ft | 293 kts | 88° |
| 2026-05-06 14:15 | 46.37342 | 6.09252 | 7934 ft | 293 kts | 66° |
| 2026-05-06 14:15 | 46.38420 | 6.11699 | 7947 ft | 284 kts | 45° |
| 2026-05-06 14:15 | 46.39793 | 6.13695 | 7796 ft | 278 kts | 44° |
| 2026-05-06 14:16 | 46.41147 | 6.15664 | 7533 ft | 275 kts | 44° |
| 2026-05-06 14:16 | 46.42483 | 6.17626 | 7280 ft | 272 kts | 44° |
| 2026-05-06 14:16 | 46.43782 | 6.19542 | 7033 ft | 269 kts | 44° |
| 2026-05-06 14:16 | 46.45085 | 6.21462 | 6784 ft | 266 kts | 44° |
| 2026-05-06 14:17 | 46.46373 | 6.23363 | 6538 ft | 263 kts | 44° |
| 2026-05-06 14:17 | 46.47650 | 6.25246 | 6290 ft | 260 kts | 44° |
| 2026-05-06 14:17 | 46.48911 | 6.27107 | 6055 ft | 256 kts | 43° |
| 2026-05-06 14:17 | 46.50007 | 6.29098 | 5973 ft | 252 kts | 66° |
| 2026-05-06 14:18 | 46.50333 | 6.31558 | 5985 ft | 246 kts | 97° |
| 2026-05-06 14:18 | 46.49776 | 6.33831 | 5995 ft | 239 kts | 127° |
| 2026-05-06 14:18 | 46.48732 | 6.35685 | 5979 ft | 235 kts | 146° |
| 2026-05-06 14:18 | 46.47327 | 6.36814 | 5760 ft | 232 kts | 161° |
| 2026-05-06 14:19 | 46.45835 | 6.37671 | 5476 ft | 229 kts | 166° |
| 2026-05-06 14:19 | 46.44297 | 6.38043 | 5267 ft | 219 kts | 184° |
| 2026-05-06 14:19 | 46.42834 | 6.37733 | 5137 ft | 207 kts | 201° |
| 2026-05-06 14:19 | 46.41574 | 6.36882 | 5044 ft | 195 kts | 216° |
| 2026-05-06 14:20 | 46.40558 | 6.35618 | 4917 ft | 191 kts | 227° |
| 2026-05-06 14:20 | 46.39632 | 6.34247 | 4785 ft | 190 kts | 226° |
| 2026-05-06 14:20 | 46.38707 | 6.32876 | 4653 ft | 187 kts | 226° |
| 2026-05-06 14:20 | 46.37816 | 6.31557 | 4523 ft | 182 kts | 226° |
| 2026-05-06 14:21 | 46.36933 | 6.30251 | 4396 ft | 181 kts | 226° |
| 2026-05-06 14:21 | 46.36051 | 6.28946 | 4266 ft | 181 kts | 226° |
| 2026-05-06 14:21 | 46.35170 | 6.27643 | 4179 ft | 181 kts | 226° |
| 2026-05-06 14:21 | 46.34290 | 6.26342 | 4020 ft | 180 kts | 226° |
| 2026-05-06 14:22 | 46.33422 | 6.25061 | 3814 ft | 176 kts | 226° |
| 2026-05-06 14:22 | 46.32578 | 6.23814 | 3577 ft | 171 kts | 226° |
| 2026-05-06 14:22 | 46.31767 | 6.22618 | 3356 ft | 161 kts | 225° |
| 2026-05-06 14:22 | 46.31012 | 6.21504 | 3148 ft | 149 kts | 225° |
| 2026-05-06 14:23 | 46.30323 | 6.20488 | 2965 ft | 137 kts | 225° |
| 2026-05-06 14:23 | 46.29684 | 6.19547 | 2778 ft | 131 kts | 226° |
| 2026-05-06 14:23 | 46.29044 | 6.18604 | 2581 ft | 131 kts | 225° |
| 2026-05-06 14:23 | 46.28404 | 6.17661 | 2387 ft | 132 kts | 225° |
| 2026-05-06 14:24 | 46.27764 | 6.16719 | 2198 ft | 131 kts | 226° |
| 2026-05-06 14:24 | 46.27133 | 6.15786 | 2009 ft | 129 kts | 225° |
| 2026-05-06 14:24 | 46.26503 | 6.14864 | 1844 ft | 129 kts | 225° |
| 2026-05-06 14:24 | 46.25878 | 6.13939 | 1661 ft | 130 kts | 225° |
| 2026-05-06 14:25 | 46.25249 | 6.13010 | 1478 ft | 129 kts | 225° |
| 2026-05-06 14:25 | 46.24633 | 6.12107 | 1373 ft | 118 kts | 225° |
| 2026-05-06 14:25 | 46.24207 | 6.11482 | 1375 ft | 45 kts | 226° |
| 2026-05-06 14:25 | 46.24025 | 6.11219 | 1378 ft | 31 kts | 226° |
| 2026-05-06 14:26 | 46.23914 | 6.11082 | 1375 ft | 19 kts | 202° |
| 2026-05-06 14:26 | 46.23785 | 6.11081 | 1379 ft | 11 kts | 170° |
| 2026-05-06 14:26 | 46.23723 | 6.11088 | 1386 ft | 7 kts | 190° |
| 2026-05-06 14:26 | 46.23695 | 6.11063 | 1385 ft | 3 kts | 224° |
| 2026-05-06 14:27 | 46.23681 | 6.11044 | 1389 ft | 2 kts | 223° |
| 2026-05-06 14:27 | 46.23669 | 6.11029 | 1386 ft | 3 kts | 222° |
| 2026-05-06 14:27 | 46.23627 | 6.10967 | 1389 ft | 15 kts | 227° |
| 2026-05-06 14:27 | 46.23550 | 6.10855 | 1389 ft | 16 kts | 225° |
| 2026-05-06 14:28 | 46.23469 | 6.10736 | 1389 ft | 16 kts | 226° |
| 2026-05-06 14:28 | 46.23407 | 6.10717 | 1402 ft | 10 kts | 143° |
| 2026-05-06 14:28 | 46.23356 | 6.10795 | 1393 ft | 12 kts | 121° |
| 2026-05-06 14:28 | 46.23374 | 6.10876 | 1396 ft | 7 kts | 56° |
| 2026-05-06 14:29 | 46.23352 | 6.10930 | 1393 ft | 8 kts | 140° |
| 2026-05-06 14:29 | 46.23321 | 6.10974 | 1393 ft | 2 kts | 136° |
| 2026-05-06 14:29 | 46.23319 | 6.10976 | 1393 ft | 0 kts | 135° |